Time;durP1;ratioP1;P1;durP2;ratioP2;P2;SDS_P1;SDS_P2;PMS_P1;PMS_P2;Temp;Humidity;BMP_temperature;BMP_pressure;BME280_temperature;BME280_humidity;BME280_pressure;Samples;Min_cycle;Max_cycle;Signal;HPM_P1;HPM_P2
2023/11/28 00:00:11;;;;;;;0.30;0.30;;;;;;;3.91;100.00;95861.81;5053827;28;20667;-78
2023/11/28 00:02:40;;;;;;;0.30;0.30;;;;;;;3.91;100.00;95861.00;5053341;28;20229;-78
2023/11/28 00:05:08;;;;;;;0.50;0.50;;;;;;;3.89;100.00;95866.34;5053395;28;20236;-78
2023/11/28 00:07:34;;;;;;;0.33;0.33;;;;;;;3.89;100.00;95855.03;5054044;28;20240;-77
2023/11/28 00:10:01;;;;;;;1.33;0.40;;;;;;;3.91;100.00;95848.75;5052202;28;20219;-78
2023/11/28 00:12:27;;;;;;;0.57;0.50;;;;;;;3.90;100.00;95847.09;5053623;28;20240;-77
2023/11/28 00:14:54;;;;;;;0.40;0.40;;;;;;;3.89;100.00;95840.22;5053082;28;20213;-78
2023/11/28 00:17:20;;;;;;;0.60;0.60;;;;;;;3.88;100.00;95849.00;5054009;28;20551;-78
2023/11/28 00:19:48;;;;;;;0.33;0.33;;;;;;;3.90;100.00;95843.63;5054070;28;20216;-78
2023/11/28 00:22:15;;;;;;;0.40;0.40;;;;;;;3.91;100.00;95840.09;5052946;28;20233;-78
2023/11/28 00:24:41;;;;;;;0.40;0.40;;;;;;;3.91;100.00;95827.84;5052754;28;20242;-78
2023/11/28 00:27:08;;;;;;;0.40;0.40;;;;;;;3.93;100.00;95825.97;5053371;28;20591;-78
2023/11/28 00:29:34;;;;;;;0.30;0.30;;;;;;;3.95;100.00;95824.03;5053737;28;20276;-77
2023/11/28 00:32:03;;;;;;;0.87;0.60;;;;;;;3.91;100.00;95825.22;5052233;28;20233;-78
2023/11/28 00:34:30;;;;;;;0.60;0.60;;;;;;;3.86;100.00;95819.53;5052476;28;20244;-78
2023/11/28 00:36:58;;;;;;;0.40;0.40;;;;;;;3.88;100.00;95817.66;5054967;28;20209;-78
2023/11/28 00:39:24;;;;;;;0.40;0.40;;;;;;;3.85;100.00;95817.88;5055036;28;20223;-78
2023/11/28 00:41:51;;;;;;;1.03;0.47;;;;;;;3.90;100.00;95820.97;5054438;28;20230;-77
2023/11/28 00:44:17;;;;;;;0.87;0.40;;;;;;;3.86;100.00;95814.31;5053656;28;20241;-78
2023/11/28 00:46:44;;;;;;;0.50;0.50;;;;;;;3.85;100.00;95814.44;5054186;28;20209;-78
2023/11/28 00:49:12;;;;;;;0.30;0.30;;;;;;;3.88;100.00;95815.03;5053714;28;20677;-77
2023/11/28 00:51:42;;;;;;;0.40;0.40;;;;;;;3.94;100.00;95804.09;5054481;28;20323;-78
2023/11/28 00:54:10;;;;;;;0.60;0.60;;;;;;;3.87;100.00;95810.78;5053703;28;20212;-78
2023/11/28 00:56:37;;;;;;;0.43;0.40;;;;;;;3.86;100.00;95803.06;5053435;28;20216;-78
2023/11/28 00:59:03;;;;;;;0.87;0.57;;;;;;;3.86;100.00;95813.50;5054742;28;20214;-78
2023/11/28 01:01:30;;;;;;;0.50;0.50;;;;;;;3.84;100.00;95804.97;5054756;28;20259;-79
2023/11/28 01:03:56;;;;;;;0.37;0.37;;;;;;;3.80;100.00;95801.72;5058931;28;20233;-78
2023/11/28 01:06:23;;;;;;;1.50;0.47;;;;;;;3.81;100.00;95806.03;5060232;28;20210;-79
2023/11/28 01:08:49;;;;;;;0.43;0.43;;;;;;;3.84;100.00;95811.00;5060764;28;20620;-79
2023/11/28 01:11:17;;;;;;;0.40;0.40;;;;;;;3.81;100.00;95806.03;5060033;28;20229;-78
2023/11/28 01:13:44;;;;;;;0.40;0.40;;;;;;;3.81;100.00;95800.81;5060598;28;20209;-79
2023/11/28 01:16:11;;;;;;;0.40;0.40;;;;;;;3.76;100.00;95802.94;5060645;28;20219;-78
2023/11/28 01:18:37;;;;;;;0.50;0.50;;;;;;;3.74;100.00;95804.84;5061284;28;20300;-79
2023/11/28 01:21:04;;;;;;;0.70;0.40;;;;;;;3.72;100.00;95801.53;5060855;28;20259;-78
2023/11/28 01:23:31;;;;;;;0.40;0.40;;;;;;;3.71;100.00;95799.88;5061553;28;20228;-80
2023/11/28 01:25:57;;;;;;;0.40;0.40;;;;;;;3.69;100.00;95795.72;5060972;28;20222;-79
2023/11/28 01:28:25;;;;;;;0.40;0.40;;;;;;;3.72;100.00;95790.25;5060939;28;20554;-79
2023/11/28 01:30:52;;;;;;;0.40;0.40;;;;;;;3.69;100.00;95786.09;5060400;28;20216;-79
2023/11/28 01:33:18;;;;;;;0.43;0.43;;;;;;;3.75;100.00;95793.47;5061384;28;20215;-79
2023/11/28 01:35:45;;;;;;;0.40;0.40;;;;;;;3.77;100.00;95781.09;5061390;28;20223;-79
2023/11/28 01:38:11;;;;;;;0.30;0.30;;;;;;;3.81;100.00;95782.53;5062133;28;20223;-79
2023/11/28 01:40:38;;;;;;;0.57;0.40;;;;;;;3.81;100.00;95779.91;5062644;28;20209;-79
2023/11/28 01:43:05;;;;;;;0.43;0.40;;;;;;;3.85;100.00;95783.91;5064533;28;20217;-78
2023/11/28 01:45:32;;;;;;;1.47;0.60;;;;;;;3.88;100.00;95765.41;5066837;28;20239;-79
2023/11/28 01:47:59;;;;;;;0.53;0.40;;;;;;;3.93;100.00;95758.03;5067725;28;20245;-79
2023/11/28 01:50:26;;;;;;;0.50;0.50;;;;;;;3.95;100.00;95756.13;5066337;28;20215;-79
2023/11/28 01:52:53;;;;;;;0.40;0.40;;;;;;;3.96;100.00;95755.16;5066741;28;20239;-79
2023/11/28 01:55:20;;;;;;;0.40;0.40;;;;;;;3.99;100.00;95756.69;5065346;28;20205;-79
2023/11/28 01:57:48;;;;;;;0.50;0.50;;;;;;;3.99;100.00;95756.69;5067561;28;20210;-79
2023/11/28 02:00:16;;;;;;;0.40;0.40;;;;;;;3.99;100.00;95752.31;5070507;28;20253;-79
2023/11/28 02:02:44;;;;;;;0.47;0.47;;;;;;;4.04;100.00;95752.75;5071566;28;20225;-78
2023/11/28 02:05:11;;;;;;;0.40;0.40;;;;;;;4.06;100.00;95753.47;5069382;28;20228;-78
2023/11/28 02:07:38;;;;;;;0.40;0.40;;;;;;;4.06;100.00;95745.63;5068166;28;20237;-78
2023/11/28 02:10:05;;;;;;;0.57;0.57;;;;;;;4.13;100.00;95754.63;5062256;28;20576;-79
2023/11/28 02:12:32;;;;;;;0.40;0.40;;;;;;;4.11;100.00;95751.31;5061510;28;20235;-78
2023/11/28 02:14:58;;;;;;;0.53;0.50;;;;;;;4.13;100.00;95749.41;5061173;28;20302;-78
2023/11/28 02:17:25;;;;;;;0.43;0.40;;;;;;;4.17;100.00;95750.78;5060934;28;20216;-79
2023/11/28 02:19:57;;;;;;;0.40;0.40;;;;;;;4.13;100.00;95744.16;5060781;28;20216;-79
2023/11/28 02:22:24;;;;;;;0.83;0.50;;;;;;;4.14;100.00;95745.81;5060272;28;20256;-79
2023/11/28 02:24:51;;;;;;;0.30;0.30;;;;;;;4.17;100.00;95748.16;5059819;28;20224;-79
2023/11/28 02:27:19;;;;;;;0.67;0.60;;;;;;;4.12;100.00;95742.50;5059608;28;20216;-79
2023/11/28 02:29:46;;;;;;;0.40;0.40;;;;;;;4.18;100.00;95736.78;5059435;28;20230;-79
2023/11/28 02:32:13;;;;;;;0.53;0.50;;;;;;;4.20;100.00;95741.88;5059653;28;20317;-79
2023/11/28 02:34:40;;;;;;;0.50;0.50;;;;;;;4.18;100.00;95742.00;5059817;28;20642;-78
2023/11/28 02:37:06;;;;;;;0.40;0.40;;;;;;;4.21;100.00;95736.53;5059892;28;20589;-78
2023/11/28 02:39:32;;;;;;;0.50;0.50;;;;;;;4.23;100.00;95734.59;5059991;28;20210;-78
2023/11/28 02:41:59;;;;;;;0.40;0.40;;;;;;;4.24;100.00;95736.28;5059208;28;20696;-78
2023/11/28 02:44:27;;;;;;;0.60;0.60;;;;;;;4.25;100.00;95731.88;5059132;28;20232;-78
2023/11/28 02:46:53;;;;;;;0.40;0.40;;;;;;;4.23;100.00;95732.00;5059371;28;20560;-78
2023/11/28 02:49:20;;;;;;;0.40;0.40;;;;;;;4.27;100.00;95720.34;5059734;28;20675;-78
2023/11/28 02:51:46;;;;;;;0.50;0.50;;;;;;;4.26;100.00;95723.91;5059561;28;20234;-78
2023/11/28 02:54:13;;;;;;;0.50;0.50;;;;;;;4.29;100.00;95721.03;5058367;28;20558;-78
2023/11/28 02:56:39;;;;;;;1.33;0.40;;;;;;;4.29;100.00;95715.78;5059968;28;20409;-78
2023/11/28 02:59:05;;;;;;;0.40;0.40;;;;;;;4.32;100.00;95722.56;5059598;28;20209;-79
2023/11/28 03:01:32;;;;;;;0.47;0.47;;;;;;;4.36;100.00;95719.59;5059074;28;20232;-78
2023/11/28 03:03:59;;;;;;;0.63;0.63;;;;;;;4.35;100.00;95714.47;5058961;28;20206;-78
2023/11/28 03:06:25;;;;;;;0.50;0.50;;;;;;;4.39;100.00;95711.47;5059508;28;20322;-78
2023/11/28 03:08:52;;;;;;;0.50;0.50;;;;;;;4.39;100.00;95713.28;5059453;28;20217;-78
2023/11/28 03:11:19;;;;;;;0.50;0.50;;;;;;;4.39;100.00;95718.50;5059178;28;20596;-78
2023/11/28 03:13:45;;;;;;;0.57;0.57;;;;;;;4.37;100.00;95708.16;5058805;28;20214;-78
2023/11/28 03:16:12;;;;;;;1.03;0.60;;;;;;;4.48;100.00;95708.13;5059540;28;20216;-78
2023/11/28 03:18:39;;;;;;;0.50;0.50;;;;;;;4.43;100.00;95707.66;5059287;28;20215;-78
2023/11/28 03:21:06;;;;;;;0.70;0.60;;;;;;;4.45;100.00;95703.13;5058947;28;20237;-79
2023/11/28 03:23:33;;;;;;;0.50;0.50;;;;;;;4.46;100.00;95702.16;5058981;28;20214;-78
2023/11/28 03:25:59;;;;;;;0.50;0.50;;;;;;;4.44;100.00;95696.25;5059649;28;20226;-78
2023/11/28 03:28:26;;;;;;;0.50;0.50;;;;;;;4.43;100.00;95710.28;5059108;28;20210;-78
2023/11/28 03:30:52;;;;;;;1.07;0.40;;;;;;;4.46;100.00;95704.78;5057664;28;20860;-78
2023/11/28 03:33:19;;;;;;;0.73;0.60;;;;;;;4.43;100.00;95704.22;5059200;28;20314;-78
2023/11/28 03:35:47;;;;;;;1.37;0.50;;;;;;;4.44;100.00;95706.69;5058224;28;20201;-78
2023/11/28 03:38:14;;;;;;;0.70;0.60;;;;;;;4.47;100.00;95716.88;5057633;28;20214;-79
2023/11/28 03:40:40;;;;;;;0.50;0.50;;;;;;;4.43;100.00;95709.44;5054666;28;20228;-80
2023/11/28 03:43:06;;;;;;;1.90;0.63;;;;;;;4.42;100.00;95708.63;5054360;28;20305;-79
2023/11/28 03:45:33;;;;;;;0.73;0.50;;;;;;;4.41;100.00;95706.94;5055029;28;20225;-78
2023/11/28 03:47:59;;;;;;;2.63;0.60;;;;;;;4.42;100.00;95707.78;5054093;28;20215;-79
2023/11/28 03:50:26;;;;;;;0.67;0.50;;;;;;;4.43;100.00;95705.03;5059089;28;20217;-78
2023/11/28 03:52:55;;;;;;;0.57;0.50;;;;;;;4.41;100.00;95706.94;5058368;28;20300;-78
2023/11/28 03:55:22;;;;;;;0.90;0.50;;;;;;;4.37;100.00;95700.31;5057577;28;20284;-78
2023/11/28 03:57:49;;;;;;;0.63;0.50;;;;;;;4.36;100.00;95711.75;5058708;28;20213;-78
2023/11/28 04:00:15;;;;;;;0.40;0.40;;;;;;;4.37;100.00;95710.78;5058444;28;20220;-78
2023/11/28 04:02:42;;;;;;;0.40;0.40;;;;;;;4.38;100.00;95717.66;5058608;28;20236;-79
2023/11/28 04:05:09;;;;;;;0.47;0.47;;;;;;;4.36;100.00;95703.91;5058406;28;20229;-79
2023/11/28 04:07:36;;;;;;;0.30;0.30;;;;;;;4.38;100.00;95696.75;5059704;28;20206;-79
2023/11/28 04:10:04;;;;;;;0.50;0.50;;;;;;;4.39;100.00;95700.22;5059080;28;20216;-79
2023/11/28 04:12:31;;;;;;;0.50;0.50;;;;;;;4.38;100.00;95701.97;5058798;28;20244;-78
2023/11/28 04:14:57;;;;;;;0.43;0.43;;;;;;;4.39;100.00;95698.41;5058810;28;20205;-79
2023/11/28 04:17:24;;;;;;;0.40;0.40;;;;;;;4.36;100.00;95698.69;5059918;28;20213;-78
2023/11/28 04:19:50;;;;;;;0.40;0.40;;;;;;;4.42;100.00;95697.31;5059655;28;20210;-78
2023/11/28 04:22:17;;;;;;;0.30;0.30;;;;;;;4.41;100.00;95696.47;5059388;28;20235;-78
2023/11/28 04:24:43;;;;;;;0.73;0.40;;;;;;;4.39;100.00;95687.13;5059621;28;20585;-78
2023/11/28 04:27:11;;;;;;;0.40;0.40;;;;;;;4.40;100.00;95694.81;5060537;28;20212;-78
2023/11/28 04:29:38;;;;;;;0.40;0.40;;;;;;;4.37;100.00;95700.31;5057064;28;20214;-78
2023/11/28 04:32:05;;;;;;;0.50;0.50;;;;;;;4.39;100.00;95698.41;5061741;28;20739;-78
2023/11/28 04:34:31;;;;;;;0.27;0.27;;;;;;;4.40;100.00;95700.06;5060436;28;20675;-79
2023/11/28 04:36:58;;;;;;;0.50;0.40;;;;;;;4.39;100.00;95703.63;5062303;28;20218;-79
2023/11/28 04:39:25;;;;;;;0.40;0.40;;;;;;;4.39;100.00;95697.59;5061497;28;20209;-79
2023/11/28 04:41:51;;;;;;;0.40;0.40;;;;;;;4.34;100.00;95705.78;5061918;28;20243;-79
2023/11/28 04:44:19;;;;;;;0.50;0.50;;;;;;;4.34;100.00;95716.25;5060891;28;20244;-79
2023/11/28 04:46:45;;;;;;;0.30;0.30;;;;;;;4.38;100.00;95712.44;5061377;28;20209;-79
2023/11/28 04:49:13;;;;;;;1.93;0.50;;;;;;;4.38;100.00;95715.06;5061589;28;20219;-79
2023/11/28 04:51:40;;;;;;;1.27;0.40;;;;;;;4.38;100.00;95737.75;5061946;28;20232;-79
2023/11/28 04:54:07;;;;;;;2.23;0.40;;;;;;;4.34;100.00;95726.72;5061418;28;20545;-79
2023/11/28 04:56:33;;;;;;;0.50;0.50;;;;;;;4.36;100.00;95729.22;5060510;28;20210;-79
2023/11/28 04:59:00;;;;;;;1.17;0.43;;;;;;;4.33;100.00;95735.50;5060906;28;20222;-79
2023/11/28 05:01:28;;;;;;;0.60;0.60;;;;;;;4.33;100.00;95735.50;5060261;28;20242;-79
2023/11/28 05:03:55;;;;;;;0.60;0.60;;;;;;;4.34;100.00;95731.13;5061252;28;20567;-79
2023/11/28 05:06:21;;;;;;;0.57;0.57;;;;;;;4.35;100.00;95730.97;5061888;28;20229;-79
2023/11/28 05:08:48;;;;;;;0.50;0.50;;;;;;;4.38;100.00;95733.34;5060967;28;20212;-79
2023/11/28 05:11:14;;;;;;;1.23;0.70;;;;;;;4.44;100.00;95732.84;5060679;28;20230;-79
2023/11/28 05:13:40;;;;;;;0.80;0.60;;;;;;;4.48;100.00;95729.03;5061302;28;20209;-79
2023/11/28 05:16:08;;;;;;;1.23;0.80;;;;;;;4.56;100.00;95736.22;5061080;28;20216;-79
2023/11/28 05:18:35;;;;;;;1.00;0.90;;;;;;;4.56;100.00;95728.38;5066421;28;20266;-79
2023/11/28 05:21:02;;;;;;;1.50;1.40;;;;;;;4.60;100.00;95738.47;5067485;28;20229;-79
2023/11/28 05:23:29;;;;;;;1.80;1.60;;;;;;;4.66;100.00;95739.75;5065713;28;20230;-79
2023/11/28 05:25:55;;;;;;;2.27;1.70;;;;;;;4.69;100.00;95748.16;5064828;28;20302;-79
2023/11/28 05:28:22;;;;;;;2.00;1.80;;;;;;;4.71;100.00;95750.66;5065674;28;20302;-79
2023/11/28 05:30:48;;;;;;;1.90;1.70;;;;;;;4.71;100.00;95755.88;5065517;28;20302;-79
2023/11/28 05:33:14;;;;;;;2.20;2.00;;;;;;;4.71;100.00;95750.66;5064983;28;20672;-79
2023/11/28 05:35:43;;;;;;;2.57;2.17;;;;;;;4.66;100.00;95760.66;5065315;28;20238;-79
2023/11/28 05:38:09;;;;;;;2.93;2.10;;;;;;;4.68;100.00;95767.44;5064596;28;20576;-79
2023/11/28 05:40:36;;;;;;;3.73;2.23;;;;;;;4.65;100.00;95770.28;5065505;28;20232;-79
2023/11/28 05:43:02;;;;;;;2.80;2.37;;;;;;;4.69;100.00;95773.47;5064656;28;20248;-78
2023/11/28 05:45:29;;;;;;;2.57;2.27;;;;;;;4.66;100.00;95784.22;5062582;28;20255;-78
2023/11/28 05:47:55;;;;;;;2.73;2.37;;;;;;;4.62;100.00;95783.63;5065284;28;20210;-79
2023/11/28 05:50:22;;;;;;;2.43;2.23;;;;;;;4.59;100.00;95778.63;5064115;28;20213;-79
2023/11/28 05:52:51;;;;;;;3.07;2.70;;;;;;;4.54;100.00;95783.44;5065258;28;20228;-79
2023/11/28 05:55:19;;;;;;;3.60;2.67;;;;;;;4.51;100.00;95794.16;5064273;28;20208;-79
2023/11/28 05:57:45;;;;;;;2.67;2.30;;;;;;;4.50;100.00;95800.34;5063914;28;20317;-79
2023/11/28 06:00:13;;;;;;;2.60;2.30;;;;;;;4.47;100.00;95808.41;5063993;28;20560;-78
2023/11/28 06:02:40;;;;;;;3.90;2.63;;;;;;;4.47;100.00;95811.03;5063912;28;20224;-78
2023/11/28 06:05:08;;;;;;;2.37;2.17;;;;;;;4.40;100.00;95816.91;5062829;28;20225;-79
2023/11/28 06:07:34;;;;;;;2.00;1.80;;;;;;;4.37;100.00;95822.38;5065001;28;20204;-79
2023/11/28 06:10:04;;;;;;;2.10;1.90;;;;;;;4.28;100.00;95826.56;5062329;28;20220;-78
2023/11/28 06:12:30;;;;;;;2.27;1.87;;;;;;;4.23;100.00;95833.94;5061040;28;20319;-78
2023/11/28 06:14:57;;;;;;;2.00;1.80;;;;;;;4.16;100.00;95848.44;5060948;28;20214;-78
2023/11/28 06:17:24;;;;;;;1.93;1.60;;;;;;;4.13;100.00;95847.88;5059656;28;20210;-78
2023/11/28 06:19:50;;;;;;;1.90;1.70;;;;;;;4.04;100.00;95869.53;5061151;28;20580;-78
2023/11/28 06:22:17;;;;;;;3.43;2.03;;;;;;;3.98;100.00;95868.22;5060774;28;20235;-77
2023/11/28 06:24:43;;;;;;;1.73;1.53;;;;;;;3.90;100.00;95883.66;5059881;28;20667;-78
2023/11/28 06:27:11;;;;;;;1.23;1.13;;;;;;;3.78;100.00;95874.19;5060525;28;20207;-78
2023/11/28 06:29:38;;;;;;;1.30;1.20;;;;;;;3.63;100.00;95888.44;5057177;28;20208;-78
2023/11/28 06:32:05;;;;;;;1.30;1.20;;;;;;;3.54;100.00;95906.59;5058244;28;20260;-78
2023/11/28 06:34:34;;;;;;;1.57;1.23;;;;;;;3.44;100.00;95909.09;5058309;28;20223;-78
2023/11/28 06:37:01;;;;;;;0.90;0.70;;;;;;;3.34;100.00;95917.69;5058899;28;20280;-78
2023/11/28 06:39:29;;;;;;;0.70;0.70;;;;;;;3.17;100.00;95931.22;5059166;28;20211;-78
2023/11/28 06:41:56;;;;;;;0.50;0.50;;;;;;;3.01;100.00;95934.09;5058686;28;20285;-79
2023/11/28 06:44:25;;;;;;;0.50;0.50;;;;;;;2.88;100.00;95943.78;5058267;28;20212;-78
2023/11/28 06:46:51;;;;;;;0.77;0.77;;;;;;;2.70;100.00;95949.53;5060154;28;20281;-78
2023/11/28 06:49:19;;;;;;;0.70;0.70;;;;;;;2.63;100.00;95954.34;5063156;28;20689;-78
2023/11/28 06:51:46;;;;;;;0.80;0.70;;;;;;;2.56;100.00;95978.38;5063515;28;20228;-79
2023/11/28 06:54:13;;;;;;;0.80;0.80;;;;;;;2.52;100.00;95977.75;5059745;28;20648;-78
2023/11/28 06:56:39;;;;;;;0.77;0.77;;;;;;;2.45;100.00;95988.75;5059765;28;20654;-79
2023/11/28 06:59:06;;;;;;;1.33;1.23;;;;;;;2.37;100.00;95994.50;5060129;28;20211;-78
2023/11/28 07:01:34;;;;;;;1.10;1.00;;;;;;;2.36;100.00;95999.81;5059797;28;20232;-78
2023/11/28 07:04:01;;;;;;;1.20;1.10;;;;;;;2.37;100.00;96004.91;5060397;28;20258;-79
2023/11/28 07:06:27;;;;;;;1.20;1.20;;;;;;;2.36;100.00;96010.22;5057353;28;20234;-78
2023/11/28 07:08:54;;;;;;;2.53;1.60;;;;;;;2.41;100.00;95993.34;5056242;28;20595;-78
2023/11/28 07:11:21;;;;;;;2.73;1.70;;;;;;;2.47;100.00;96013.75;5056078;28;20228;-78
2023/11/28 07:13:48;;;;;;;2.00;1.80;;;;;;;2.44;100.00;96027.00;5055051;28;20204;-78
2023/11/28 07:16:14;;;;;;;1.70;1.60;;;;;;;2.34;100.00;96036.38;5056526;28;20208;-78
2023/11/28 07:18:42;;;;;;;2.13;1.83;;;;;;;2.32;100.00;96037.47;5057084;28;20220;-78
2023/11/28 07:21:09;;;;;;;2.10;1.90;;;;;;;2.21;100.00;96042.59;5057799;28;20228;-78
2023/11/28 07:23:37;;;;;;;2.97;1.90;;;;;;;2.18;100.00;96055.81;5056549;28;20557;-79
2023/11/28 07:26:03;;;;;;;1.77;1.60;;;;;;;2.23;100.00;96058.94;5056528;28;20760;-80
2023/11/28 07:28:30;;;;;;;1.90;1.80;;;;;;;2.18;100.00;96067.06;5055443;28;20218;-77
2023/11/28 07:30:57;;;;;;;2.20;2.00;;;;;;;2.24;100.00;96082.28;5057525;28;20261;-76
2023/11/28 07:33:23;;;;;;;2.00;1.80;;;;;;;2.18;100.00;96090.53;5056169;28;20204;-78
2023/11/28 07:35:51;;;;;;;1.80;1.70;;;;;;;2.17;100.00;96093.22;5057761;28;20208;-79
2023/11/28 07:38:20;;;;;;;1.70;1.60;;;;;;;2.12;100.00;96109.19;5056029;28;20218;-79
2023/11/28 07:40:47;;;;;;;2.17;2.00;;;;;;;2.08;100.00;96118.13;5056017;28;20277;-79
2023/11/28 07:43:13;;;;;;;2.07;1.93;;;;;;;2.12;100.00;96122.22;5055211;28;20216;-78
2023/11/28 07:45:40;;;;;;;1.77;1.67;;;;;;;2.10;100.00;96134.53;5054653;28;20236;-77
2023/11/28 07:48:07;;;;;;;1.83;1.70;;;;;;;2.05;100.00;96139.19;5054660;28;20258;-77
2023/11/28 07:50:33;;;;;;;2.40;2.20;;;;;;;1.98;100.00;96153.56;5053986;28;20222;-77
2023/11/28 07:53:01;;;;;;;1.97;1.87;;;;;;;2.00;100.00;96154.28;5056554;28;20282;-78
2023/11/28 07:55:28;;;;;;;2.10;2.00;;;;;;;1.89;100.00;96169.78;5056477;28;20216;-78
2023/11/28 07:57:54;;;;;;;2.30;2.10;;;;;;;1.90;100.00;96174.06;5055649;28;20212;-78
2023/11/28 08:00:22;;;;;;;2.20;2.00;;;;;;;1.90;100.00;96186.28;5055946;28;20223;-78
2023/11/28 08:02:48;;;;;;;2.20;2.00;;;;;;;1.86;100.00;96195.22;5056823;28;20231;-78
2023/11/28 08:05:15;;;;;;;1.80;1.70;;;;;;;1.90;100.00;96192.28;5056686;28;20554;-78
2023/11/28 08:07:43;;;;;;;2.43;2.23;;;;;;;1.90;100.00;96191.47;5054363;28;20223;-77
2023/11/28 08:10:11;;;;;;;3.63;2.33;;;;;;;1.85;100.00;96203.97;5055825;28;20218;-77
2023/11/28 08:12:38;;;;;;;2.63;2.43;;;;;;;1.85;100.00;96209.16;5056517;28;20745;-78
2023/11/28 08:15:06;;;;;;;2.63;2.43;;;;;;;1.86;100.00;96216.91;5057330;28;20619;-78
2023/11/28 08:17:33;;;;;;;2.23;2.03;;;;;;;1.78;100.00;96219.13;5058072;28;20735;-78
2023/11/28 08:20:00;;;;;;;2.90;2.60;;;;;;;1.73;100.00;96220.38;5061452;28;20212;-79
2023/11/28 08:22:26;;;;;;;2.70;2.50;;;;;;;1.69;100.00;96224.97;5061198;28;20262;-77
2023/11/28 08:24:53;;;;;;;5.47;3.00;;;;;;;1.70;100.00;96241.41;5056739;28;20224;-77
2023/11/28 08:27:21;;;;;;;3.07;2.83;;;;;;;1.69;100.00;96240.56;5054184;28;20236;-78
2023/11/28 08:29:48;;;;;;;5.77;2.80;;;;;;;1.68;100.00;96249.31;5056393;28;20623;-78
2023/11/28 08:32:16;;;;;;;3.40;3.03;;;;;;;1.66;100.00;96261.59;5057118;28;20228;-78
2023/11/28 08:34:42;;;;;;;3.23;3.00;;;;;;;1.64;100.00;96263.47;5055591;28;20208;-77
2023/11/28 08:37:09;;;;;;;3.93;3.13;;;;;;;1.63;100.00;96274.81;5054632;28;20692;-77
2023/11/28 08:39:35;;;;;;;3.93;3.47;;;;;;;1.58;100.00;96279.47;5055467;28;20208;-78
2023/11/28 08:42:02;;;;;;;3.47;3.17;;;;;;;1.58;100.00;96294.25;5054240;28;20227;-77
2023/11/28 08:44:32;;;;;;;4.03;3.20;;;;;;;1.53;100.00;96297.13;5053327;28;20592;-77
2023/11/28 08:46:58;;;;;;;3.83;3.03;;;;;;;1.49;100.00;96295.69;5054551;28;20266;-78
2023/11/28 08:49:25;;;;;;;2.67;2.47;;;;;;;1.51;100.00;96308.56;5054348;28;20210;-78
2023/11/28 08:51:51;;;;;;;2.97;2.67;;;;;;;1.53;100.00;96317.16;5052022;28;20228;-78
2023/11/28 08:54:18;;;;;;;3.10;2.63;;;;;;;1.56;100.00;96328.19;5052143;28;20847;-78
2023/11/28 08:56:44;;;;;;;2.63;2.00;;;;;;;1.56;100.00;96336.00;5053798;28;20211;-78
2023/11/28 08:59:11;;;;;;;2.63;2.43;;;;;;;1.59;100.00;96341.00;5054394;28;20220;-78
2023/11/28 09:01:39;;;;;;;2.60;2.40;;;;;;;1.64;100.00;96351.97;5054794;28;20283;-78
2023/11/28 09:04:06;;;;;;;3.20;2.37;;;;;;;1.64;100.00;96354.59;5053788;28;20216;-78
2023/11/28 09:06:32;;;;;;;3.00;2.70;;;;;;;1.89;100.00;96357.31;5052988;28;20228;-78
2023/11/28 09:08:59;;;;;;;2.60;2.40;;;;;;;1.79;100.00;96360.59;5054183;28;20211;-78
2023/11/28 09:11:25;;;;;;;2.27;2.00;;;;;;;1.80;100.00;96367.47;5053903;28;20235;-77
2023/11/28 09:13:52;;;;;;;2.17;2.00;;;;;;;1.81;100.00;96367.41;5054218;28;20216;-77
2023/11/28 09:16:20;;;;;;;2.20;2.00;;;;;;;1.76;100.00;96377.25;5055047;28;20231;-77
2023/11/28 09:18:48;;;;;;;2.20;2.00;;;;;;;1.70;100.00;96382.84;5054786;28;20227;-78
2023/11/28 09:21:15;;;;;;;2.53;2.10;;;;;;;1.72;100.00;96391.38;5054568;28;20230;-78
2023/11/28 09:23:42;;;;;;;3.27;2.47;;;;;;;1.77;100.00;96393.72;5054530;28;20573;-78
2023/11/28 09:26:08;;;;;;;2.37;2.17;;;;;;;1.72;100.00;96399.19;5053364;28;20270;-78
2023/11/28 09:28:37;;;;;;;2.07;1.87;;;;;;;1.76;100.00;96398.09;5054190;28;20208;-78
2023/11/28 09:31:04;;;;;;;2.03;1.80;;;;;;;1.72;100.00;96409.63;5062245;28;20228;-78
2023/11/28 09:33:31;;;;;;;2.63;2.43;;;;;;;1.73;100.00;96413.88;5053586;28;20468;-77
2023/11/28 09:35:59;;;;;;;2.37;2.07;;;;;;;1.70;100.00;96414.09;5053939;28;20463;-78
2023/11/28 09:38:26;;;;;;;1.73;1.63;;;;;;;1.61;100.00;96422.44;5054659;28;20208;-75
2023/11/28 09:40:52;;;;;;;1.70;1.60;;;;;;;1.55;100.00;96429.81;5053829;28;20303;-77
2023/11/28 09:43:24;;;;;;;1.60;1.50;;;;;;;1.52;100.00;96432.56;5054730;28;20216;-78
2023/11/28 09:45:53;;;;;;;1.60;1.50;;;;;;;1.50;100.00;96439.66;5055007;28;20298;-78
2023/11/28 09:48:20;;;;;;;1.47;1.37;;;;;;;1.49;100.00;96440.59;5062783;28;20234;-79
2023/11/28 09:50:50;;;;;;;1.70;1.60;;;;;;;1.45;100.00;96434.72;5062157;28;20211;-78
2023/11/28 09:53:23;;;;;;;1.83;1.73;;;;;;;1.49;100.00;96445.78;5066786;28;20210;-79
2023/11/28 09:55:50;;;;;;;1.93;1.83;;;;;;;1.50;100.00;96456.13;5066848;28;20208;-79
2023/11/28 09:58:19;;;;;;;1.70;1.60;;;;;;;1.53;100.00;96450.72;5066250;28;20219;-78
2023/11/28 10:00:47;;;;;;;2.33;1.97;;;;;;;1.55;100.00;96467.09;5063619;28;20205;-78
2023/11/28 10:03:13;;;;;;;1.77;1.63;;;;;;;1.57;100.00;96461.78;5052785;28;20686;-77
2023/11/28 10:05:40;;;;;;;1.67;1.57;;;;;;;1.57;100.00;96467.84;5054985;28;20215;-78
2023/11/28 10:08:10;;;;;;;1.77;1.67;;;;;;;1.64;100.00;96470.88;5055317;28;20570;-78
2023/11/28 10:10:41;;;;;;;1.60;1.50;;;;;;;1.59;100.00;96472.97;5055504;28;20208;-78
2023/11/28 10:13:08;;;;;;;1.70;1.60;;;;;;;1.60;100.00;96485.03;5057529;28;20219;-78
2023/11/28 10:15:34;;;;;;;1.90;1.80;;;;;;;1.57;100.00;96485.22;5058239;28;20231;-78
2023/11/28 10:18:01;;;;;;;2.13;1.57;;;;;;;1.63;100.00;96501.31;5059356;28;20576;-78
2023/11/28 10:20:27;;;;;;;2.57;1.73;;;;;;;1.67;100.00;96505.38;5058775;28;20208;-78
2023/11/28 10:22:54;;;;;;;1.97;1.87;;;;;;;1.61;100.00;96503.16;5058667;28;20290;-78
2023/11/28 10:25:23;;;;;;;1.97;1.87;;;;;;;1.58;100.00;96513.75;5058235;28;20208;-78
2023/11/28 10:27:51;;;;;;;1.97;1.80;;;;;;;1.57;100.00;96512.09;5057906;28;20633;-78
2023/11/28 10:30:21;;;;;;;1.93;1.80;;;;;;;1.53;100.00;96510.59;5058368;28;20204;-78
2023/11/28 10:32:47;;;;;;;1.70;1.60;;;;;;;1.53;100.00;96518.41;5059033;28;20235;-78
2023/11/28 10:35:14;;;;;;;2.20;2.00;;;;;;;1.55;100.00;96523.53;5058212;28;20218;-78
2023/11/28 10:37:42;;;;;;;2.00;1.90;;;;;;;1.51;100.00;96520.25;5057469;28;20211;-78
2023/11/28 10:40:13;;;;;;;2.60;2.40;;;;;;;1.57;100.00;96526.88;5055203;28;20204;-78
2023/11/28 10:42:41;;;;;;;2.23;2.03;;;;;;;1.52;100.00;96534.09;5054858;28;20247;-79
2023/11/28 10:45:10;;;;;;;2.23;2.00;;;;;;;1.50;100.00;96530.75;5054054;28;20223;-78
2023/11/28 10:47:39;;;;;;;2.50;2.30;;;;;;;1.51;100.00;96543.69;5054397;28;20227;-76
2023/11/28 10:50:07;;;;;;;2.20;2.00;;;;;;;1.52;100.00;96544.50;5054972;28;20212;-77
2023/11/28 10:52:37;;;;;;;1.97;1.87;;;;;;;1.47;100.00;96552.59;5056331;28;20273;-78
2023/11/28 10:55:08;;;;;;;2.27;2.07;;;;;;;1.43;100.00;96564.13;5054050;28;20212;-78
2023/11/28 10:57:40;;;;;;;1.90;1.80;;;;;;;1.45;100.00;96562.28;5054345;28;20238;-77
2023/11/28 11:00:12;;;;;;;2.20;2.00;;;;;;;1.44;100.00;96575.38;5054219;28;20647;-77
2023/11/28 11:02:40;;;;;;;3.30;3.00;;;;;;;1.45;100.00;96574.44;5053682;28;20467;-77
2023/11/28 11:05:09;;;;;;;2.20;2.00;;;;;;;1.45;100.00;96564.03;5053364;28;20212;-78
2023/11/28 11:07:36;;;;;;;2.00;1.90;;;;;;;1.41;100.00;96568.56;5054439;28;20769;-80
2023/11/28 11:10:08;;;;;;;2.50;2.30;;;;;;;1.42;100.00;96574.63;5056458;28;20691;-77
2023/11/28 11:12:37;;;;;;;2.50;2.20;;;;;;;1.42;100.00;96585.84;5053638;28;20710;-78
2023/11/28 11:15:09;;;;;;;2.37;2.17;;;;;;;1.40;100.00;96574.72;5056555;28;20618;-78
2023/11/28 11:17:44;;;;;;;2.80;2.33;;;;;;;1.46;100.00;96592.56;5058988;28;20196;-78
2023/11/28 11:20:13;;;;;;;3.70;2.50;;;;;;;1.46;100.00;96602.97;5057625;28;20214;-79
2023/11/28 11:22:45;;;;;;;2.33;2.13;;;;;;;1.48;100.00;96608.09;5055635;28;20239;-77
2023/11/28 11:25:12;;;;;;;3.77;2.70;;;;;;;1.47;100.00;96612.47;5053089;28;20216;-78
2023/11/28 11:27:39;;;;;;;3.00;2.70;;;;;;;1.48;100.00;96613.31;5053592;28;20280;-77
2023/11/28 11:30:08;;;;;;;2.93;2.63;;;;;;;1.48;100.00;96627.16;5053309;28;20208;-77
2023/11/28 11:32:36;;;;;;;2.40;2.20;;;;;;;1.43;100.00;96624.00;5052943;28;20228;-77